Basalt, CO (81621)

2:33 PM MST on December 06, 2016 (GMT -0700)
Aspen Junction | | Change Station
Active Advisory: Winter Weather Advisory

Elev 6840 ft 39.37 °N, 107.07 °W | Updated 2 minutes ago

Overcast
Overcast
28.4 °F
Feels Like 28 °F
N
0.0
Wind Variable Wind from ENE
Gusts 4.0 mph

Today
High -- | Low -- °F
--% Chance of Precip.
Yesterday
High -- | Low -- °F
Precip. -- in
Pressure 29.65 in
Visibility 10.0 miles
Clouds Overcast 7000 ft
Windchill 28 °F
Dew Point 13 °F
Humidity 51%
Rainfall 0.00 in
Snow Depth Not available.
7:14 AM 4:44 PM
Waxing Crescent, 45% visible
METAR KASE 062053Z 33004KT 10SM OVC070 M03/M11 A2964 RMK AO2 SLP040 T10331111 56036
Pressure 29.65 in
Visibility 10.0 miles
Clouds Overcast 7000 ft
Windchill 28 °F
Dew Point 13 °F
Humidity 51%
Rainfall 0.00 in
Snow Depth Not available.
7:14 AM 4:44 PM
Waxing Crescent, 45% visible
METAR KASE 062053Z 33004KT 10SM OVC070 M03/M11 A2964 RMK AO2 SLP040 T10331111 56036

10-Day Weather Forecast

Almanac

Astronomy

Dec. 06, 2016 Rise Set
Actual Time
Civil Twilight
Nautical Twilight
Astronomical Twilight
Moon
Length of Visible Light
Length of Day
Tomorrow will be .
, % of the Moon is Illuminated

Today's Extremes

State Highs State Lows

Community

WunderPhotos

Upload Photos

1,956,034 photos uploaded!

WunderBlog® & News

Nearby

Air Quality

  Air Quality AQ Index Pollutant
Not available.

Snow Depth

Station Depth Elevation

Earthquake Activity

City Distance Mag. Time & Date
Minimum magnitude displayed is 2.5.

Coastal Water Temperatures

Place Temperature

Stations

Nearby Weather Stations

Station Location Temp. Windchill Dew Point Humidity Wind Precip. Elev Updated Type
                   

Watches & Warnings

Winter Weather Advisory
Issued: 12:54 PM MST Dec. 6, 2016 – National Weather Service

... Winter Weather Advisory remains in effect until 6 am MST
Wednesday...

* locations include the cities of... Eagle... Edwards... Glenwood
Springs... Carbondale... Basalt.

* Timing... snow will develop late this afternoon and continue
through tonight.

* Snow accumulation... 2 to 4 inches.

* Winds... west 5 to 10 mph with gusts to 25 mph.

* Impacts... low visibility in periods of snow and blowing snow
will make travel difficult with hazardous conditions expected
over Interstate 70 east of Glenwood Springs through this
evening.

Precautionary/preparedness actions...

A Winter Weather Advisory means that periods of snow and/or
blowing snow will cause travel difficulties. Be prepared for
slippery roads and limited visibilities... and use caution while
driving.